createdAt,value
2022-09-06T00:02:57.678Z,12.38
2022-09-06T00:05:28.453Z,13.57
2022-09-06T00:08:00.936Z,13.65
2022-09-06T00:10:32.864Z,10.05
2022-09-06T00:13:08.967Z,13.57
2022-09-06T00:15:39.334Z,12.52
2022-09-06T00:18:09.845Z,14.35
2022-09-06T00:20:42.464Z,17.20
2022-09-06T00:23:12.276Z,14.77
2022-09-06T00:25:42.892Z,16.67
2022-09-06T00:28:17.556Z,14.55
2022-09-06T00:30:48.001Z,10.73
2022-09-06T00:33:18.111Z,11.23
2022-09-06T00:35:49.573Z,11.10
2022-09-06T00:38:19.929Z,10.32
2022-09-06T00:40:50.235Z,11.93
2022-09-06T00:43:21.834Z,13.55
2022-09-06T00:45:52.581Z,13.98
2022-09-06T00:48:24.959Z,11.98
2022-09-06T00:51:00.164Z,14.63
2022-09-06T00:53:32.255Z,11.70
2022-09-06T00:56:03.375Z,10.43
2022-09-06T00:58:34.914Z,11.18
2022-09-06T01:01:05.615Z,12.00
2022-09-06T01:03:36.786Z,9.88
2022-09-06T01:06:20.506Z,11.27
2022-09-06T01:09:04.336Z,8.48
2022-09-06T01:11:55.396Z,10.48
2022-09-06T01:14:38.426Z,8.68
2022-09-06T01:17:21.116Z,9.25
2022-09-06T01:20:20.606Z,7.22
2022-09-06T01:23:45.543Z,11.45
2022-09-06T01:26:53.834Z,9.88
2022-09-06T01:29:34.757Z,10.77
2022-09-06T01:32:16.707Z,9.38
2022-09-06T01:34:51.116Z,10.02
2022-09-06T01:37:24.807Z,14.23
2022-09-06T01:39:55.164Z,11.90
2022-09-06T01:42:38.156Z,10.10
2022-09-06T01:45:13.574Z,11.88
2022-09-06T01:47:56.794Z,10.80
2022-09-06T01:50:53.736Z,29.92
2022-09-06T01:53:47.996Z,11.20
2022-09-06T01:56:26.836Z,9.23
2022-09-06T01:59:25.726Z,17.15
2022-09-06T02:02:05.432Z,10.10
2022-09-06T02:04:43.926Z,9.25
2022-09-06T02:07:20.488Z,11.25
2022-09-06T02:09:55.464Z,10.27
2022-09-06T02:12:28.567Z,8.55
2022-09-06T02:15:04.035Z,11.88
2022-09-06T02:17:41.476Z,9.40
2022-09-06T02:20:17.506Z,9.10
2022-09-06T02:22:49.928Z,9.43
2022-09-06T02:25:26.244Z,8.73
2022-09-06T02:27:57.077Z,8.13
2022-09-06T02:30:27.275Z,9.57
2022-09-06T02:33:03.306Z,9.20
2022-09-06T02:35:33.516Z,10.02
2022-09-06T02:38:05.086Z,12.30
2022-09-06T02:40:35.234Z,10.18
2022-09-06T02:43:05.575Z,11.10
2022-09-06T02:45:35.586Z,11.63
2022-09-06T02:48:07.176Z,7.93
2022-09-06T02:50:46.426Z,13.00
2022-09-06T02:53:16.997Z,12.32
2022-09-06T02:55:49.106Z,10.20
2022-09-06T02:58:19.206Z,8.57
2022-09-06T03:00:49.478Z,8.65
2022-09-06T03:03:20.937Z,17.70
2022-09-06T03:05:52.404Z,7.05
2022-09-06T03:08:26.036Z,10.63
2022-09-06T03:10:57.865Z,9.52
2022-09-06T03:13:28.185Z,10.35
2022-09-06T03:16:00.627Z,10.90
2022-09-06T03:18:33.317Z,8.65
2022-09-06T03:21:03.705Z,10.70
2022-09-06T03:23:34.381Z,8.57
2022-09-06T03:26:04.904Z,8.48
2022-09-06T03:28:35.596Z,9.85
2022-09-06T03:31:06.565Z,9.25
2022-09-06T03:33:38.296Z,9.27
2022-09-06T03:36:08.947Z,9.30
2022-09-06T03:38:39.066Z,9.77
2022-09-06T03:41:09.286Z,8.85
2022-09-06T03:43:39.537Z,10.02
2022-09-06T03:46:09.601Z,9.02
2022-09-06T03:48:41.394Z,8.20
2022-09-06T03:51:11.525Z,8.10
2022-09-06T03:53:41.994Z,8.75
2022-09-06T03:56:12.026Z,9.52
2022-09-06T03:58:42.424Z,9.93
2022-09-06T04:01:14.362Z,8.87
2022-09-06T04:03:46.605Z,10.57
2022-09-06T04:06:17.067Z,8.73
2022-09-06T04:08:47.265Z,7.88
2022-09-06T04:11:17.564Z,8.02
2022-09-06T04:13:48.027Z,7.90
2022-09-06T04:16:19.071Z,11.68
2022-09-06T04:18:50.918Z,7.72
2022-09-06T04:23:51.226Z,6.38
2022-09-06T04:26:21.563Z,7.90
2022-09-06T04:28:51.906Z,8.37
2022-09-06T04:31:21.932Z,8.07
2022-09-06T04:33:53.766Z,8.00
2022-09-06T04:36:23.886Z,5.93
2022-09-06T04:38:55.027Z,6.95
2022-09-06T04:41:25.106Z,6.65
2022-09-06T04:43:56.184Z,10.15
2022-09-06T04:46:28.567Z,8.50
2022-09-06T04:49:01.770Z,9.88
2022-09-06T04:51:31.987Z,8.55
2022-09-06T04:54:02.385Z,15.77
2022-09-06T04:56:32.624Z,10.40
2022-09-06T04:59:03.314Z,11.40
2022-09-06T05:01:33.423Z,9.65
2022-09-06T05:04:05.256Z,8.35
2022-09-06T05:06:35.577Z,9.05
2022-09-06T05:09:05.787Z,9.75
2022-09-06T05:11:36.315Z,8.48
2022-09-06T05:14:06.436Z,8.60
2022-09-06T05:16:36.619Z,12.10
2022-09-06T05:19:08.328Z,13.20
2022-09-06T05:24:08.727Z,8.82
2022-09-06T05:26:38.885Z,13.82
2022-09-06T05:29:09.295Z,10.45
2022-09-06T05:31:39.466Z,11.10
2022-09-06T05:34:13.706Z,18.63
2022-09-06T05:36:45.725Z,12.38
2022-09-06T05:39:15.707Z,11.88
2022-09-06T05:41:46.060Z,10.82
2022-09-06T05:44:16.066Z,9.82
2022-09-06T05:46:47.003Z,8.82
2022-09-06T05:49:18.729Z,11.63
2022-09-06T05:54:22.246Z,9.85
2022-09-06T05:56:52.557Z,10.13
2022-09-06T05:59:22.668Z,11.27
2022-09-06T06:01:54.508Z,9.15
2022-09-06T06:04:26.356Z,7.97
2022-09-06T06:06:56.877Z,6.53
2022-09-06T06:09:27.107Z,7.25
2022-09-06T06:11:57.707Z,7.32
2022-09-06T06:14:27.757Z,6.40
2022-09-06T06:16:58.137Z,3.88
2022-09-06T06:19:29.765Z,6.03
2022-09-06T06:22:00.206Z,4.22
2022-09-06T06:24:30.251Z,3.53
2022-09-06T06:27:00.436Z,3.97
2022-09-06T06:29:30.747Z,3.42
2022-09-06T06:32:00.931Z,3.15
2022-09-06T06:34:32.716Z,2.20
2022-09-06T06:39:33.445Z,3.03
2022-09-06T06:42:04.006Z,4.93
2022-09-06T06:44:44.886Z,5.80
2022-09-06T06:47:15.533Z,3.35
2022-09-06T06:49:48.687Z,2.90
2022-09-06T06:52:22.326Z,4.38
2022-09-06T06:54:52.705Z,2.83
2022-09-06T06:57:24.117Z,2.47
2022-09-06T06:59:54.397Z,5.35
2022-09-06T07:02:26.726Z,4.93
2022-09-06T07:04:59.126Z,3.15
2022-09-06T07:12:55.805Z,3.15
2022-09-06T07:15:26.217Z,1.77
2022-09-06T07:17:57.809Z,2.30
2022-09-06T07:20:29.780Z,3.05
2022-09-06T07:25:55.875Z,2.65
2022-09-06T07:28:26.055Z,1.85
2022-09-06T07:30:57.156Z,3.03
2022-09-06T07:33:27.674Z,3.03
2022-09-06T07:36:04.534Z,2.78
2022-09-06T07:38:36.472Z,0.90
2022-09-06T07:41:08.695Z,1.17
2022-09-06T07:43:39.558Z,0.68
2022-09-06T07:46:11.630Z,1.17
2022-09-06T07:48:43.508Z,3.20
2022-09-06T07:51:17.089Z,1.30
2022-09-06T07:53:58.039Z,1.85
2022-09-06T07:56:37.619Z,1.10
2022-09-06T07:59:07.715Z,2.75
2022-09-06T08:01:39.393Z,1.85
2022-09-06T08:04:11.301Z,1.77
2022-09-06T08:09:34.973Z,1.70
2022-09-06T08:12:07.564Z,2.13
2022-09-06T08:14:38.077Z,2.08
2022-09-06T08:17:08.475Z,1.38
2022-09-06T08:19:38.925Z,2.35
2022-09-06T08:22:10.639Z,1.00
2022-09-06T08:24:40.696Z,2.80
2022-09-06T08:27:11.575Z,1.85
2022-09-06T08:29:41.626Z,2.35
2022-09-06T08:32:11.586Z,1.00
2022-09-06T08:34:42.305Z,1.40
2022-09-06T08:37:13.719Z,2.30
2022-09-06T08:39:44.195Z,1.10
2022-09-06T08:42:14.326Z,0.82
2022-09-06T08:44:56.625Z,1.42
2022-09-06T08:47:27.902Z,2.65
2022-09-06T08:50:02.820Z,2.00
2022-09-06T08:55:37.295Z,1.98
2022-09-06T08:58:39.927Z,2.63
2022-09-06T09:01:14.401Z,0.68
2022-09-06T09:03:46.085Z,0.70
2022-09-06T09:08:49.401Z,2.95
2022-09-06T09:11:22.796Z,3.10
2022-09-06T09:13:56.374Z,1.30
2022-09-06T09:16:27.150Z,0.57
2022-09-06T09:19:00.953Z,0.57
2022-09-06T09:21:34.935Z,2.47
2022-09-06T09:24:08.277Z,1.45
2022-09-06T09:26:49.754Z,0.35
2022-09-06T09:29:23.987Z,0.95
2022-09-06T09:31:58.528Z,1.15
2022-09-06T09:34:34.039Z,0.55
2022-09-06T09:40:05.836Z,0.98
2022-09-06T09:42:39.624Z,2.03
2022-09-06T09:45:27.038Z,1.75
2022-09-06T09:47:57.846Z,2.63
2022-09-06T09:53:11.193Z,1.92
2022-09-06T09:55:42.851Z,0.50
2022-09-06T09:58:27.422Z,0.55
2022-09-06T10:01:13.859Z,0.55
2022-09-06T10:09:33.343Z,0.60
2022-09-06T10:12:03.877Z,0.57
2022-09-06T10:14:42.115Z,1.33
2022-09-06T10:17:21.428Z,2.47
2022-09-06T10:19:51.526Z,0.77
2022-09-06T10:22:27.908Z,1.40
2022-09-06T10:25:31.485Z,0.98
2022-09-06T10:28:42.102Z,1.85
2022-09-06T10:31:42.541Z,2.78
2022-09-06T10:34:41.436Z,0.85
2022-09-06T10:37:22.496Z,0.30
2022-09-06T10:39:58.122Z,0.77
2022-09-06T10:42:37.111Z,0.73
2022-09-06T10:45:32.285Z,1.42
2022-09-06T10:48:14.030Z,1.15
2022-09-06T10:50:54.374Z,1.35
2022-09-06T10:53:48.603Z,1.10
2022-09-06T10:56:24.854Z,1.55
2022-09-06T11:02:03.653Z,2.90
2022-09-06T11:07:35.553Z,0.80
2022-09-06T11:10:12.055Z,0.30
2022-09-06T11:12:49.934Z,1.73
2022-09-06T11:15:22.275Z,3.70
2022-09-06T11:18:02.498Z,1.17
2022-09-06T11:20:40.207Z,0.55
2022-09-06T11:23:48.614Z,1.23
2022-09-06T11:26:35.876Z,2.35
2022-09-06T11:29:09.494Z,0.70
2022-09-06T11:34:55.651Z,0.85
2022-09-06T11:37:31.033Z,1.73
2022-09-06T11:40:31.861Z,1.75
2022-09-06T11:43:16.411Z,0.73
2022-09-06T11:45:49.450Z,0.60
2022-09-06T11:48:44.549Z,0.63
2022-09-06T11:51:32.534Z,0.77
2022-09-06T11:54:27.199Z,0.30
2022-09-06T11:57:01.446Z,0.90
2022-09-06T11:59:51.096Z,0.50
2022-09-06T12:02:38.139Z,0.60
2022-09-06T12:05:20.999Z,0.95
2022-09-06T12:08:28.382Z,0.82
2022-09-06T12:11:06.688Z,0.40
2022-09-06T12:13:54.917Z,0.57
2022-09-06T12:16:25.647Z,0.73
2022-09-06T12:19:03.196Z,0.65
2022-09-06T12:22:01.783Z,1.25
2022-09-06T12:24:55.348Z,0.65
2022-09-06T12:27:28.875Z,1.17
2022-09-06T12:30:02.108Z,0.45
2022-09-06T12:32:37.281Z,1.40
2022-09-06T12:38:06.778Z,1.40
2022-09-06T12:40:41.149Z,0.95
2022-09-06T12:43:14.801Z,0.52
2022-09-06T12:45:46.168Z,1.05
2022-09-06T12:48:30.228Z,2.03
2022-09-06T12:51:04.659Z,1.30
2022-09-06T12:53:35.436Z,1.10
2022-09-06T12:56:08.147Z,2.35
2022-09-06T12:58:40.219Z,0.50
2022-09-06T13:01:13.959Z,1.33
2022-09-06T13:03:49.595Z,0.57
2022-09-06T13:06:27.210Z,0.60
2022-09-06T13:08:59.779Z,1.48
2022-09-06T13:11:34.604Z,0.88
2022-09-06T13:14:14.437Z,0.50
2022-09-06T13:16:47.987Z,0.57
2022-09-06T13:19:20.709Z,2.35
2022-09-06T13:21:52.269Z,0.70
2022-09-06T13:24:24.773Z,2.75
2022-09-06T13:26:55.827Z,1.02
2022-09-06T13:29:31.838Z,3.58
2022-09-06T13:32:06.027Z,1.02
2022-09-06T13:34:37.010Z,1.80
2022-09-06T13:39:39.672Z,1.13
2022-09-06T13:42:12.664Z,2.25
2022-09-06T13:44:44.370Z,0.77
2022-09-06T13:47:14.730Z,2.30
2022-09-06T13:49:45.320Z,0.68
2022-09-06T13:52:18.552Z,1.42
2022-09-06T13:54:49.189Z,1.38
2022-09-06T13:57:24.283Z,6.47
2022-09-06T13:59:58.391Z,0.80
2022-09-06T14:02:32.931Z,2.03
2022-09-06T14:05:04.091Z,2.50
2022-09-06T14:07:35.612Z,1.73
2022-09-06T14:10:13.084Z,0.80
2022-09-06T14:12:47.031Z,1.80
2022-09-06T14:15:19.330Z,1.15
2022-09-06T14:17:49.742Z,0.60
2022-09-06T14:20:20.051Z,3.13
2022-09-06T14:22:50.632Z,0.60
2022-09-06T14:25:20.986Z,1.95
2022-09-06T14:27:54.148Z,0.75
2022-09-06T14:30:27.556Z,2.03
2022-09-06T14:32:59.540Z,1.55
2022-09-06T14:35:30.407Z,1.05
2022-09-06T14:38:04.213Z,1.67
2022-09-06T14:40:37.905Z,0.73
2022-09-06T14:43:11.183Z,2.28
2022-09-06T14:45:43.962Z,1.90
2022-09-06T14:48:14.401Z,1.20
2022-09-06T14:50:44.576Z,3.30
2022-09-06T14:53:38.971Z,3.97
2022-09-06T14:56:09.832Z,2.20
2022-09-06T15:01:18.266Z,2.95
2022-09-06T15:03:54.242Z,3.17
2022-09-06T15:06:28.070Z,2.15
2022-09-06T15:08:59.614Z,1.52
2022-09-06T15:11:34.866Z,2.10
2022-09-06T15:14:08.342Z,2.90
2022-09-06T15:16:41.199Z,1.58
2022-09-06T15:19:12.570Z,2.42
2022-09-06T15:21:44.197Z,0.73
2022-09-06T15:24:17.597Z,1.05
2022-09-06T15:26:48.125Z,1.13
2022-09-06T15:29:19.061Z,2.13
2022-09-06T15:31:53.212Z,2.13
2022-09-06T15:34:27.078Z,1.00
2022-09-06T15:36:58.652Z,2.05
2022-09-06T15:39:31.264Z,1.13
2022-09-06T15:42:02.296Z,0.90
2022-09-06T15:44:35.880Z,2.22
2022-09-06T15:47:10.110Z,2.47
2022-09-06T15:49:42.189Z,3.58
2022-09-06T15:52:14.625Z,5.20
2022-09-06T15:55:03.910Z,6.43
2022-09-06T15:57:42.277Z,3.45
2022-09-06T16:00:18.141Z,6.85
2022-09-06T16:02:57.052Z,4.65
2022-09-06T16:08:22.659Z,4.80
2022-09-06T16:10:52.933Z,2.22
2022-09-06T16:13:25.908Z,1.83
2022-09-06T16:16:03.325Z,2.65
2022-09-06T16:18:36.782Z,1.20
2022-09-06T16:21:09.703Z,3.97
2022-09-06T16:23:45.038Z,4.05
2022-09-06T16:26:21.257Z,2.95
2022-09-06T16:28:54.892Z,3.47
2022-09-06T16:31:29.345Z,6.07
2022-09-06T16:34:03.981Z,4.93
2022-09-06T16:36:34.730Z,2.65
2022-09-06T16:39:12.441Z,6.95
2022-09-06T16:41:46.795Z,5.55
2022-09-06T16:44:24.547Z,5.60
2022-09-06T16:46:57.480Z,7.65
2022-09-06T16:49:29.612Z,4.72
2022-09-06T16:52:00.283Z,4.80
2022-09-06T16:54:31.119Z,5.43
2022-09-06T16:57:05.715Z,3.38
2022-09-06T16:59:37.883Z,3.28
2022-09-06T17:02:08.429Z,7.60
2022-09-06T17:04:42.309Z,5.82
2022-09-06T17:07:14.733Z,6.07
2022-09-06T17:09:46.415Z,3.50
2022-09-06T17:14:48.502Z,2.72
2022-09-06T17:17:18.173Z,5.75
2022-09-06T17:19:50.473Z,3.50
2022-09-06T17:22:22.021Z,7.43
2022-09-06T17:24:52.841Z,4.80
2022-09-06T17:27:23.004Z,11.77
2022-09-06T17:29:53.340Z,4.55
2022-09-06T17:32:23.422Z,5.03
2022-09-06T17:34:55.171Z,11.80
2022-09-06T17:37:25.511Z,13.50
2022-09-06T17:39:58.089Z,6.18
2022-09-06T17:42:29.242Z,4.55
2022-09-06T17:44:59.723Z,8.63
2022-09-06T17:47:32.162Z,4.20
2022-09-06T17:50:04.253Z,7.45
2022-09-06T17:52:35.841Z,6.47
2022-09-06T17:55:07.663Z,5.38
2022-09-06T17:57:37.962Z,7.95
2022-09-06T18:00:09.390Z,4.63
2022-09-06T18:02:39.732Z,4.80
2022-09-06T18:05:12.029Z,3.90
2022-09-06T18:07:42.542Z,4.35
2022-09-06T18:10:14.873Z,7.72
2022-09-06T18:12:45.585Z,6.50
2022-09-06T18:15:15.701Z,7.82
2022-09-06T18:17:46.083Z,8.60
2022-09-06T18:20:17.813Z,5.72
2022-09-06T18:22:50.172Z,4.40
2022-09-06T18:25:20.502Z,3.53
2022-09-06T18:27:51.320Z,10.07
2022-09-06T18:30:21.541Z,6.63
2022-09-06T18:32:54.320Z,10.00
2022-09-06T18:35:26.032Z,4.07
2022-09-06T18:37:56.474Z,9.80
2022-09-06T18:40:34.829Z,6.50
2022-09-06T18:43:14.061Z,6.95
2022-09-06T18:45:48.514Z,10.48
2022-09-06T18:48:23.907Z,12.60
2022-09-06T18:50:59.749Z,11.20
2022-09-06T18:53:33.602Z,21.83
2022-09-06T18:56:06.972Z,13.63
2022-09-06T18:58:41.405Z,20.88
2022-09-06T19:01:16.681Z,11.45
2022-09-06T19:03:49.046Z,11.85
2022-09-06T19:06:24.795Z,11.55
2022-09-06T19:09:00.867Z,12.93
2022-09-06T19:11:33.201Z,10.68
2022-09-06T19:14:06.228Z,9.40
2022-09-06T19:16:36.830Z,9.27
2022-09-06T19:19:12.264Z,8.80
2022-09-06T19:21:44.391Z,11.57
2022-09-06T19:24:16.514Z,9.68
2022-09-06T19:26:47.493Z,6.18
2022-09-06T19:29:19.594Z,9.40
2022-09-06T19:31:50.512Z,13.88
2022-09-06T19:34:22.582Z,9.48
2022-09-06T19:36:57.999Z,11.95
2022-09-06T19:39:37.010Z,7.00
2022-09-06T19:42:11.825Z,10.65
2022-09-06T19:44:42.743Z,9.75
2022-09-06T19:47:14.852Z,9.93
2022-09-06T19:49:49.242Z,11.03
2022-09-06T19:52:21.432Z,10.30
2022-09-06T19:54:51.943Z,8.77
2022-09-06T19:57:22.141Z,11.90
2022-09-06T19:59:53.395Z,13.18
2022-09-06T20:02:24.295Z,16.83
2022-09-06T20:04:54.821Z,12.40
2022-09-06T20:07:27.491Z,9.98
2022-09-06T20:09:57.955Z,15.43
2022-09-06T20:12:29.981Z,14.60
2022-09-06T20:15:00.521Z,10.43
2022-09-06T20:17:34.301Z,11.57
2022-09-06T20:20:05.413Z,12.38
2022-09-06T20:22:37.123Z,14.00
2022-09-06T20:25:08.993Z,11.85
2022-09-06T20:30:15.360Z,13.80
2022-09-06T20:32:45.481Z,12.13
2022-09-06T20:35:15.903Z,13.00
2022-09-06T20:37:47.661Z,12.30
2022-09-06T20:40:18.127Z,14.05
2022-09-06T20:42:48.558Z,9.10
2022-09-06T20:45:20.133Z,9.23
2022-09-06T20:47:50.512Z,12.52
2022-09-06T20:50:20.802Z,10.07
2022-09-06T20:52:53.419Z,11.50
2022-09-06T20:55:23.541Z,12.00
2022-09-06T20:57:53.933Z,11.68
2022-09-06T21:00:24.075Z,12.05
2022-09-06T21:02:54.435Z,14.10
2022-09-06T21:05:24.523Z,13.77
2022-09-06T21:07:56.143Z,14.18
2022-09-06T21:10:26.621Z,11.77
2022-09-06T21:12:56.861Z,14.82
2022-09-06T21:15:27.332Z,12.63
2022-09-06T21:17:57.443Z,11.85
2022-09-06T21:20:27.665Z,14.38
2022-09-06T21:22:59.573Z,9.65
2022-09-06T21:27:59.703Z,13.93
2022-09-06T21:30:29.912Z,11.52
2022-09-06T21:33:00.363Z,12.98
2022-09-06T21:35:30.483Z,12.13
2022-09-06T21:38:02.007Z,11.40
2022-09-06T21:40:35.201Z,13.02
2022-09-06T21:43:05.672Z,11.23
2022-09-06T21:45:40.182Z,17.07
2022-09-06T21:48:10.366Z,13.07
2022-09-06T21:50:40.843Z,12.15
2022-09-06T21:53:12.343Z,12.27
2022-09-06T21:55:42.912Z,13.80
2022-09-06T21:58:14.075Z,10.63
2022-09-06T22:00:47.134Z,15.48
2022-09-06T22:03:17.339Z,14.43
2022-09-06T22:05:47.858Z,12.90
2022-09-06T22:08:20.048Z,12.65
2022-09-06T22:10:50.490Z,16.77
2022-09-06T22:13:21.488Z,13.27
2022-09-06T22:15:52.520Z,11.90
2022-09-06T22:18:22.770Z,13.00
2022-09-06T22:21:01.352Z,13.57
2022-09-06T22:23:33.069Z,11.85
2022-09-06T22:26:05.269Z,12.98
2022-09-06T22:28:35.898Z,10.80
2022-09-06T22:31:07.091Z,12.15
2022-09-06T22:33:37.788Z,12.68
2022-09-06T22:36:10.671Z,13.75
2022-09-06T22:38:42.296Z,13.27
2022-09-06T22:41:13.039Z,12.05
2022-09-06T22:43:43.278Z,14.27
2022-09-06T22:46:14.321Z,15.15
2022-09-06T22:48:44.608Z,22.35
2022-09-06T22:51:14.988Z,16.98
2022-09-06T22:53:46.721Z,13.02
2022-09-06T22:56:17.328Z,16.92
2022-09-06T22:58:47.686Z,15.70
2022-09-06T23:01:18.732Z,12.38
2022-09-06T23:03:49.762Z,11.88
2022-09-06T23:06:20.349Z,16.42
2022-09-06T23:08:52.056Z,9.38
2022-09-06T23:11:22.650Z,12.93
2022-09-06T23:13:56.559Z,15.15
2022-09-06T23:16:28.029Z,12.02
2022-09-06T23:18:58.519Z,10.07
2022-09-06T23:21:29.098Z,10.27
2022-09-06T23:24:01.218Z,10.40
2022-09-06T23:26:33.707Z,9.75
2022-09-06T23:29:03.942Z,10.45
2022-09-06T23:31:34.500Z,12.48
2022-09-06T23:34:05.428Z,14.25
2022-09-06T23:36:35.858Z,16.52
2022-09-06T23:39:08.089Z,11.73
2022-09-06T23:41:38.608Z,14.50
2022-09-06T23:44:08.787Z,11.80
2022-09-06T23:46:39.429Z,13.70
2022-09-06T23:49:09.638Z,12.32
2022-09-06T23:51:40.055Z,12.93
2022-09-06T23:54:12.278Z,9.60
2022-09-06T23:56:42.747Z,10.55
2022-09-06T23:59:13.167Z,9.30
